sensor_id;sensor_type;location;lat;lon;timestamp;P1;durP1;ratioP1;P2;durP2;ratioP2
46355;SDS011;32066;49.474;11.106;2023-04-03T00:01:24;3.50;;;1.63;;
46355;SDS011;32066;49.474;11.106;2023-04-03T00:03:53;3.83;;;1.80;;
46355;SDS011;32066;49.474;11.106;2023-04-03T00:06:22;3.50;;;1.63;;
46355;SDS011;32066;49.474;11.106;2023-04-03T00:08:51;5.25;;;1.90;;
46355;SDS011;32066;49.474;11.106;2023-04-03T00:11:20;4.70;;;1.85;;
46355;SDS011;32066;49.474;11.106;2023-04-03T00:13:49;4.13;;;1.80;;
46355;SDS011;32066;49.474;11.106;2023-04-03T00:16:20;4.50;;;1.67;;
46355;SDS011;32066;49.474;11.106;2023-04-03T00:18:49;12.70;;;3.10;;
46355;SDS011;32066;49.474;11.106;2023-04-03T00:21:17;3.83;;;1.70;;
46355;SDS011;32066;49.474;11.106;2023-04-03T00:23:46;3.63;;;1.60;;
46355;SDS011;32066;49.474;11.106;2023-04-03T00:26:15;4.15;;;1.80;;
46355;SDS011;32066;49.474;11.106;2023-04-03T00:28:44;3.42;;;1.50;;
46355;SDS011;32066;49.474;11.106;2023-04-03T00:31:14;3.85;;;1.60;;
46355;SDS011;32066;49.474;11.106;2023-04-03T00:33:45;4.50;;;1.60;;
46355;SDS011;32066;49.474;11.106;2023-04-03T00:36:15;3.88;;;1.60;;
46355;SDS011;32066;49.474;11.106;2023-04-03T00:38:44;4.05;;;1.85;;
46355;SDS011;32066;49.474;11.106;2023-04-03T00:41:12;4.93;;;1.77;;
46355;SDS011;32066;49.474;11.106;2023-04-03T00:43:41;4.03;;;1.60;;
46355;SDS011;32066;49.474;11.106;2023-04-03T00:46:10;4.17;;;1.80;;
46355;SDS011;32066;49.474;11.106;2023-04-03T00:48:39;4.70;;;1.70;;
46355;SDS011;32066;49.474;11.106;2023-04-03T00:51:14;3.85;;;2.00;;
46355;SDS011;32066;49.474;11.106;2023-04-03T00:53:46;4.70;;;2.30;;
46355;SDS011;32066;49.474;11.106;2023-04-03T00:56:18;3.85;;;1.40;;
46355;SDS011;32066;49.474;11.106;2023-04-03T00:58:50;3.83;;;1.60;;
46355;SDS011;32066;49.474;11.106;2023-04-03T01:01:22;5.55;;;1.63;;
46355;SDS011;32066;49.474;11.106;2023-04-03T01:03:54;3.80;;;1.50;;
46355;SDS011;32066;49.474;11.106;2023-04-03T01:06:27;4.07;;;1.50;;
46355;SDS011;32066;49.474;11.106;2023-04-03T01:09:04;3.95;;;1.63;;
46355;SDS011;32066;49.474;11.106;2023-04-03T01:11:33;4.40;;;1.88;;
46355;SDS011;32066;49.474;11.106;2023-04-03T01:14:02;4.18;;;1.98;;
46355;SDS011;32066;49.474;11.106;2023-04-03T01:16:31;4.90;;;1.63;;
46355;SDS011;32066;49.474;11.106;2023-04-03T01:19:00;4.10;;;1.77;;
46355;SDS011;32066;49.474;11.106;2023-04-03T01:24:34;3.60;;;1.48;;
46355;SDS011;32066;49.474;11.106;2023-04-03T01:27:06;5.72;;;1.77;;
46355;SDS011;32066;49.474;11.106;2023-04-03T01:29:38;3.70;;;1.60;;
46355;SDS011;32066;49.474;11.106;2023-04-03T01:32:11;4.20;;;1.75;;
46355;SDS011;32066;49.474;11.106;2023-04-03T01:34:41;3.88;;;1.52;;
46355;SDS011;32066;49.474;11.106;2023-04-03T01:37:10;5.35;;;1.67;;
46355;SDS011;32066;49.474;11.106;2023-04-03T01:39:39;5.47;;;1.83;;
46355;SDS011;32066;49.474;11.106;2023-04-03T01:42:07;5.35;;;1.67;;
46355;SDS011;32066;49.474;11.106;2023-04-03T01:44:39;4.13;;;1.45;;
46355;SDS011;32066;49.474;11.106;2023-04-03T01:47:08;3.50;;;1.55;;
46355;SDS011;32066;49.474;11.106;2023-04-03T01:49:40;5.38;;;1.90;;
46355;SDS011;32066;49.474;11.106;2023-04-03T01:52:08;4.25;;;1.80;;
46355;SDS011;32066;49.474;11.106;2023-04-03T01:54:37;3.40;;;1.60;;
46355;SDS011;32066;49.474;11.106;2023-04-03T01:57:06;4.43;;;1.67;;
46355;SDS011;32066;49.474;11.106;2023-04-03T01:59:35;4.03;;;1.80;;
46355;SDS011;32066;49.474;11.106;2023-04-03T02:02:05;4.53;;;1.90;;
46355;SDS011;32066;49.474;11.106;2023-04-03T02:04:37;4.32;;;1.85;;
46355;SDS011;32066;49.474;11.106;2023-04-03T02:07:06;3.90;;;1.88;;
46355;SDS011;32066;49.474;11.106;2023-04-03T02:09:35;4.05;;;1.83;;
46355;SDS011;32066;49.474;11.106;2023-04-03T02:12:03;5.35;;;1.75;;
46355;SDS011;32066;49.474;11.106;2023-04-03T02:14:32;4.72;;;1.80;;
46355;SDS011;32066;49.474;11.106;2023-04-03T02:17:01;3.75;;;1.60;;
46355;SDS011;32066;49.474;11.106;2023-04-03T02:19:33;3.70;;;1.70;;
46355;SDS011;32066;49.474;11.106;2023-04-03T02:22:05;4.95;;;1.83;;
46355;SDS011;32066;49.474;11.106;2023-04-03T02:24:34;4.63;;;1.65;;
46355;SDS011;32066;49.474;11.106;2023-04-03T02:27:04;4.18;;;1.70;;
46355;SDS011;32066;49.474;11.106;2023-04-03T02:29:33;3.85;;;1.50;;
46355;SDS011;32066;49.474;11.106;2023-04-03T02:32:01;4.43;;;1.80;;
46355;SDS011;32066;49.474;11.106;2023-04-03T02:34:31;4.78;;;1.95;;
46355;SDS011;32066;49.474;11.106;2023-04-03T02:37:03;3.40;;;1.50;;
46355;SDS011;32066;49.474;11.106;2023-04-03T02:39:32;4.40;;;1.90;;
46355;SDS011;32066;49.474;11.106;2023-04-03T02:42:01;3.83;;;1.70;;
46355;SDS011;32066;49.474;11.106;2023-04-03T02:44:29;4.25;;;1.70;;
46355;SDS011;32066;49.474;11.106;2023-04-03T02:46:58;3.67;;;1.75;;
46355;SDS011;32066;49.474;11.106;2023-04-03T02:49:27;3.33;;;1.65;;
46355;SDS011;32066;49.474;11.106;2023-04-03T02:51:56;3.90;;;1.70;;
46355;SDS011;32066;49.474;11.106;2023-04-03T02:54:28;4.03;;;1.80;;
46355;SDS011;32066;49.474;11.106;2023-04-03T02:56:59;5.50;;;1.90;;
46355;SDS011;32066;49.474;11.106;2023-04-03T02:59:28;5.60;;;1.70;;
46355;SDS011;32066;49.474;11.106;2023-04-03T03:01:57;4.55;;;1.70;;
46355;SDS011;32066;49.474;11.106;2023-04-03T03:04:26;4.45;;;1.73;;
46355;SDS011;32066;49.474;11.106;2023-04-03T03:06:55;6.90;;;2.00;;
46355;SDS011;32066;49.474;11.106;2023-04-03T03:09:24;4.65;;;1.63;;
46355;SDS011;32066;49.474;11.106;2023-04-03T03:11:56;4.65;;;1.83;;
46355;SDS011;32066;49.474;11.106;2023-04-03T03:14:25;4.03;;;1.80;;
46355;SDS011;32066;49.474;11.106;2023-04-03T03:16:53;4.13;;;1.80;;
46355;SDS011;32066;49.474;11.106;2023-04-03T03:19:22;4.38;;;1.80;;
46355;SDS011;32066;49.474;11.106;2023-04-03T03:21:51;4.30;;;1.90;;
46355;SDS011;32066;49.474;11.106;2023-04-03T03:24:21;5.28;;;1.90;;
46355;SDS011;32066;49.474;11.106;2023-04-03T03:26:50;4.68;;;1.80;;
46355;SDS011;32066;49.474;11.106;2023-04-03T03:29:21;5.13;;;1.80;;
46355;SDS011;32066;49.474;11.106;2023-04-03T03:31:50;5.22;;;1.98;;
46355;SDS011;32066;49.474;11.106;2023-04-03T03:34:19;4.85;;;1.92;;
46355;SDS011;32066;49.474;11.106;2023-04-03T03:36:48;4.65;;;2.00;;
46355;SDS011;32066;49.474;11.106;2023-04-03T03:39:16;4.28;;;1.98;;
46355;SDS011;32066;49.474;11.106;2023-04-03T03:41:45;5.80;;;2.33;;
46355;SDS011;32066;49.474;11.106;2023-04-03T03:44:15;5.50;;;2.00;;
46355;SDS011;32066;49.474;11.106;2023-04-03T03:46:46;7.03;;;2.17;;
46355;SDS011;32066;49.474;11.106;2023-04-03T03:49:15;4.65;;;1.83;;
46355;SDS011;32066;49.474;11.106;2023-04-03T03:51:44;4.03;;;2.03;;
46355;SDS011;32066;49.474;11.106;2023-04-03T03:54:12;4.13;;;2.00;;
46355;SDS011;32066;49.474;11.106;2023-04-03T03:56:41;6.85;;;2.25;;
46355;SDS011;32066;49.474;11.106;2023-04-03T03:59:11;4.60;;;1.90;;
46355;SDS011;32066;49.474;11.106;2023-04-03T04:01:40;5.32;;;1.92;;
46355;SDS011;32066;49.474;11.106;2023-04-03T04:04:12;4.30;;;1.90;;
46355;SDS011;32066;49.474;11.106;2023-04-03T04:06:40;5.30;;;2.35;;
46355;SDS011;32066;49.474;11.106;2023-04-03T04:09:10;6.13;;;2.25;;
46355;SDS011;32066;49.474;11.106;2023-04-03T04:11:39;6.72;;;2.22;;
46355;SDS011;32066;49.474;11.106;2023-04-03T04:14:10;5.05;;;1.90;;
46355;SDS011;32066;49.474;11.106;2023-04-03T04:16:40;7.18;;;2.30;;
46355;SDS011;32066;49.474;11.106;2023-04-03T04:19:17;7.95;;;2.38;;
46355;SDS011;32066;49.474;11.106;2023-04-03T04:21:45;5.63;;;2.40;;
46355;SDS011;32066;49.474;11.106;2023-04-03T04:24:15;7.07;;;2.15;;
46355;SDS011;32066;49.474;11.106;2023-04-03T04:26:44;6.20;;;2.05;;
46355;SDS011;32066;49.474;11.106;2023-04-03T04:29:15;6.28;;;2.20;;
46355;SDS011;32066;49.474;11.106;2023-04-03T04:31:47;5.72;;;2.10;;
46355;SDS011;32066;49.474;11.106;2023-04-03T04:34:18;5.65;;;2.25;;
46355;SDS011;32066;49.474;11.106;2023-04-03T04:36:47;6.88;;;2.60;;
46355;SDS011;32066;49.474;11.106;2023-04-03T04:39:16;8.30;;;2.78;;
46355;SDS011;32066;49.474;11.106;2023-04-03T04:41:45;6.30;;;2.58;;
46355;SDS011;32066;49.474;11.106;2023-04-03T04:44:13;7.78;;;2.60;;
46355;SDS011;32066;49.474;11.106;2023-04-03T04:46:42;6.05;;;2.60;;
46355;SDS011;32066;49.474;11.106;2023-04-03T04:49:11;5.45;;;2.22;;
46355;SDS011;32066;49.474;11.106;2023-04-03T04:51:42;5.18;;;2.35;;
46355;SDS011;32066;49.474;11.106;2023-04-03T04:54:12;6.00;;;2.42;;
46355;SDS011;32066;49.474;11.106;2023-04-03T04:56:41;6.90;;;2.50;;
46355;SDS011;32066;49.474;11.106;2023-04-03T04:59:10;8.30;;;2.80;;
46355;SDS011;32066;49.474;11.106;2023-04-03T05:01:39;6.10;;;2.42;;
46355;SDS011;32066;49.474;11.106;2023-04-03T05:04:14;6.13;;;2.22;;
46355;SDS011;32066;49.474;11.106;2023-04-03T05:06:48;5.50;;;2.30;;
46355;SDS011;32066;49.474;11.106;2023-04-03T05:09:21;6.22;;;2.33;;
46355;SDS011;32066;49.474;11.106;2023-04-03T05:11:51;5.28;;;2.28;;
46355;SDS011;32066;49.474;11.106;2023-04-03T05:14:24;5.90;;;2.20;;
46355;SDS011;32066;49.474;11.106;2023-04-03T05:16:56;11.57;;;2.70;;
46355;SDS011;32066;49.474;11.106;2023-04-03T05:19:27;5.07;;;2.53;;
46355;SDS011;32066;49.474;11.106;2023-04-03T05:22:00;6.20;;;2.20;;
46355;SDS011;32066;49.474;11.106;2023-04-03T05:24:29;8.32;;;2.72;;
46355;SDS011;32066;49.474;11.106;2023-04-03T05:26:58;6.97;;;2.30;;
46355;SDS011;32066;49.474;11.106;2023-04-03T05:29:27;7.25;;;2.40;;
46355;SDS011;32066;49.474;11.106;2023-04-03T05:31:58;6.30;;;2.30;;
46355;SDS011;32066;49.474;11.106;2023-04-03T05:34:27;8.02;;;2.30;;
46355;SDS011;32066;49.474;11.106;2023-04-03T05:36:56;5.82;;;2.10;;
46355;SDS011;32066;49.474;11.106;2023-04-03T05:39:29;6.95;;;2.40;;
46355;SDS011;32066;49.474;11.106;2023-04-03T05:42:00;7.63;;;2.40;;
46355;SDS011;32066;49.474;11.106;2023-04-03T05:44:29;6.47;;;2.38;;
46355;SDS011;32066;49.474;11.106;2023-04-03T05:46:58;5.90;;;2.40;;
46355;SDS011;32066;49.474;11.106;2023-04-03T05:49:26;6.72;;;2.50;;
46355;SDS011;32066;49.474;11.106;2023-04-03T05:51:55;6.57;;;2.47;;
46355;SDS011;32066;49.474;11.106;2023-04-03T05:54:30;6.80;;;2.20;;
46355;SDS011;32066;49.474;11.106;2023-04-03T05:57:14;7.78;;;3.35;;
46355;SDS011;32066;49.474;11.106;2023-04-03T05:59:44;5.63;;;1.98;;
46355;SDS011;32066;49.474;11.106;2023-04-03T06:02:15;7.63;;;2.10;;
46355;SDS011;32066;49.474;11.106;2023-04-03T06:04:46;5.53;;;2.17;;
46355;SDS011;32066;49.474;11.106;2023-04-03T06:07:17;6.38;;;2.08;;
46355;SDS011;32066;49.474;11.106;2023-04-03T06:09:51;5.68;;;2.13;;
46355;SDS011;32066;49.474;11.106;2023-04-03T06:12:21;5.68;;;2.10;;
46355;SDS011;32066;49.474;11.106;2023-04-03T06:14:50;4.95;;;1.90;;
46355;SDS011;32066;49.474;11.106;2023-04-03T06:17:19;5.80;;;2.22;;
46355;SDS011;32066;49.474;11.106;2023-04-03T06:19:48;5.80;;;2.30;;
46355;SDS011;32066;49.474;11.106;2023-04-03T06:22:18;4.85;;;2.10;;
46355;SDS011;32066;49.474;11.106;2023-04-03T06:24:47;6.38;;;2.40;;
46355;SDS011;32066;49.474;11.106;2023-04-03T06:27:18;7.90;;;2.40;;
46355;SDS011;32066;49.474;11.106;2023-04-03T06:29:46;6.63;;;2.03;;
46355;SDS011;32066;49.474;11.106;2023-04-03T06:32:15;5.75;;;1.85;;
46355;SDS011;32066;49.474;11.106;2023-04-03T06:34:44;7.78;;;2.08;;
46355;SDS011;32066;49.474;11.106;2023-04-03T06:37:14;6.75;;;1.90;;
46355;SDS011;32066;49.474;11.106;2023-04-03T06:39:51;6.85;;;2.30;;
46355;SDS011;32066;49.474;11.106;2023-04-03T06:42:22;4.53;;;1.95;;
46355;SDS011;32066;49.474;11.106;2023-04-03T06:45:02;5.97;;;2.20;;
46355;SDS011;32066;49.474;11.106;2023-04-03T06:47:32;6.60;;;2.22;;
46355;SDS011;32066;49.474;11.106;2023-04-03T06:50:01;6.32;;;2.20;;
46355;SDS011;32066;49.474;11.106;2023-04-03T06:52:31;9.38;;;2.35;;
46355;SDS011;32066;49.474;11.106;2023-04-03T06:55:00;9.07;;;2.60;;
46355;SDS011;32066;49.474;11.106;2023-04-03T06:57:31;7.03;;;2.10;;
46355;SDS011;32066;49.474;11.106;2023-04-03T07:00:00;7.47;;;2.22;;
46355;SDS011;32066;49.474;11.106;2023-04-03T07:02:29;4.78;;;2.13;;
46355;SDS011;32066;49.474;11.106;2023-04-03T07:04:58;6.03;;;2.60;;
46355;SDS011;32066;49.474;11.106;2023-04-03T07:07:26;8.20;;;3.13;;
46355;SDS011;32066;49.474;11.106;2023-04-03T07:09:55;7.18;;;2.42;;
46355;SDS011;32066;49.474;11.106;2023-04-03T07:12:24;6.68;;;2.75;;
46355;SDS011;32066;49.474;11.106;2023-04-03T07:14:55;7.05;;;2.33;;
46355;SDS011;32066;49.474;11.106;2023-04-03T07:17:24;7.65;;;2.33;;
46355;SDS011;32066;49.474;11.106;2023-04-03T07:19:53;7.00;;;2.47;;
46355;SDS011;32066;49.474;11.106;2023-04-03T07:22:21;5.70;;;2.20;;
46355;SDS011;32066;49.474;11.106;2023-04-03T07:24:50;5.45;;;2.35;;
46355;SDS011;32066;49.474;11.106;2023-04-03T07:27:19;5.47;;;2.40;;
46355;SDS011;32066;49.474;11.106;2023-04-03T07:29:47;5.45;;;2.35;;
46355;SDS011;32066;49.474;11.106;2023-04-03T07:32:19;6.72;;;2.38;;
46355;SDS011;32066;49.474;11.106;2023-04-03T07:34:47;6.63;;;2.40;;
46355;SDS011;32066;49.474;11.106;2023-04-03T07:37:16;5.88;;;2.35;;
46355;SDS011;32066;49.474;11.106;2023-04-03T07:39:45;7.78;;;2.50;;
46355;SDS011;32066;49.474;11.106;2023-04-03T07:42:14;7.28;;;2.50;;
46355;SDS011;32066;49.474;11.106;2023-04-03T07:44:43;6.18;;;2.35;;
46355;SDS011;32066;49.474;11.106;2023-04-03T07:47:12;5.45;;;2.10;;
46355;SDS011;32066;49.474;11.106;2023-04-03T07:49:44;8.23;;;2.70;;
46355;SDS011;32066;49.474;11.106;2023-04-03T07:52:13;5.40;;;2.10;;
46355;SDS011;32066;49.474;11.106;2023-04-03T07:54:42;7.70;;;2.13;;
46355;SDS011;32066;49.474;11.106;2023-04-03T07:57:11;7.15;;;2.42;;
46355;SDS011;32066;49.474;11.106;2023-04-03T07:59:39;6.03;;;2.47;;
46355;SDS011;32066;49.474;11.106;2023-04-03T08:02:08;6.20;;;2.33;;
46355;SDS011;32066;49.474;11.106;2023-04-03T08:04:37;5.95;;;2.38;;
46355;SDS011;32066;49.474;11.106;2023-04-03T08:07:09;5.60;;;2.20;;
46355;SDS011;32066;49.474;11.106;2023-04-03T08:09:37;5.78;;;2.10;;
46355;SDS011;32066;49.474;11.106;2023-04-03T08:12:06;5.88;;;2.25;;
46355;SDS011;32066;49.474;11.106;2023-04-03T08:14:36;6.03;;;2.30;;
46355;SDS011;32066;49.474;11.106;2023-04-03T08:17:05;6.35;;;2.20;;
46355;SDS011;32066;49.474;11.106;2023-04-03T08:19:36;6.45;;;2.45;;
46355;SDS011;32066;49.474;11.106;2023-04-03T08:22:06;6.05;;;2.38;;
46355;SDS011;32066;49.474;11.106;2023-04-03T08:24:37;6.78;;;2.97;;
46355;SDS011;32066;49.474;11.106;2023-04-03T08:27:05;5.78;;;2.25;;
46355;SDS011;32066;49.474;11.106;2023-04-03T08:29:34;6.50;;;2.20;;
46355;SDS011;32066;49.474;11.106;2023-04-03T08:32:03;4.90;;;1.95;;
46355;SDS011;32066;49.474;11.106;2023-04-03T08:34:32;8.32;;;2.45;;
46355;SDS011;32066;49.474;11.106;2023-04-03T08:37:02;5.85;;;2.10;;
46355;SDS011;32066;49.474;11.106;2023-04-03T08:39:33;5.95;;;2.20;;
46355;SDS011;32066;49.474;11.106;2023-04-03T08:42:03;5.65;;;2.50;;
46355;SDS011;32066;49.474;11.106;2023-04-03T08:44:45;5.65;;;2.20;;
46355;SDS011;32066;49.474;11.106;2023-04-03T08:47:18;6.50;;;2.25;;
46355;SDS011;32066;49.474;11.106;2023-04-03T08:49:51;6.93;;;2.50;;
46355;SDS011;32066;49.474;11.106;2023-04-03T08:52:27;7.50;;;2.40;;
46355;SDS011;32066;49.474;11.106;2023-04-03T08:55:05;5.75;;;2.22;;
46355;SDS011;32066;49.474;11.106;2023-04-03T08:57:41;5.93;;;2.17;;
46355;SDS011;32066;49.474;11.106;2023-04-03T09:00:16;4.63;;;1.90;;
46355;SDS011;32066;49.474;11.106;2023-04-03T09:02:47;4.28;;;1.65;;
46355;SDS011;32066;49.474;11.106;2023-04-03T09:05:18;5.65;;;1.85;;
46355;SDS011;32066;49.474;11.106;2023-04-03T09:07:49;7.07;;;2.38;;
46355;SDS011;32066;49.474;11.106;2023-04-03T09:10:29;4.80;;;2.15;;
46355;SDS011;32066;49.474;11.106;2023-04-03T09:13:01;6.57;;;2.43;;
46355;SDS011;32066;49.474;11.106;2023-04-03T09:15:35;6.35;;;1.92;;
46355;SDS011;32066;49.474;11.106;2023-04-03T09:18:04;8.27;;;2.45;;
46355;SDS011;32066;49.474;11.106;2023-04-03T09:20:40;6.32;;;2.15;;
46355;SDS011;32066;49.474;11.106;2023-04-03T09:23:15;5.53;;;1.77;;
46355;SDS011;32066;49.474;11.106;2023-04-03T09:25:53;5.20;;;2.10;;
46355;SDS011;32066;49.474;11.106;2023-04-03T09:28:30;4.93;;;1.98;;
46355;SDS011;32066;49.474;11.106;2023-04-03T09:31:01;5.72;;;1.90;;
46355;SDS011;32066;49.474;11.106;2023-04-03T09:33:39;6.50;;;2.58;;
46355;SDS011;32066;49.474;11.106;2023-04-03T09:36:08;4.20;;;1.65;;
46355;SDS011;32066;49.474;11.106;2023-04-03T09:38:37;5.07;;;1.70;;
46355;SDS011;32066;49.474;11.106;2023-04-03T09:41:12;5.75;;;2.33;;
46355;SDS011;32066;49.474;11.106;2023-04-03T09:43:51;4.90;;;1.80;;
46355;SDS011;32066;49.474;11.106;2023-04-03T09:46:24;5.45;;;2.00;;
46355;SDS011;32066;49.474;11.106;2023-04-03T09:48:57;5.10;;;1.80;;
46355;SDS011;32066;49.474;11.106;2023-04-03T09:51:27;5.18;;;1.90;;
46355;SDS011;32066;49.474;11.106;2023-04-03T09:53:57;5.90;;;2.00;;
46355;SDS011;32066;49.474;11.106;2023-04-03T09:56:51;4.78;;;1.88;;
46355;SDS011;32066;49.474;11.106;2023-04-03T09:59:21;5.10;;;1.83;;
46355;SDS011;32066;49.474;11.106;2023-04-03T10:01:56;4.55;;;1.70;;
46355;SDS011;32066;49.474;11.106;2023-04-03T10:04:26;4.57;;;1.80;;
46355;SDS011;32066;49.474;11.106;2023-04-03T10:09:58;4.57;;;1.67;;
46355;SDS011;32066;49.474;11.106;2023-04-03T10:12:31;5.32;;;1.70;;
46355;SDS011;32066;49.474;11.106;2023-04-03T10:15:00;4.28;;;1.80;;
46355;SDS011;32066;49.474;11.106;2023-04-03T10:17:32;6.60;;;2.38;;
46355;SDS011;32066;49.474;11.106;2023-04-03T10:20:26;5.30;;;1.80;;
46355;SDS011;32066;49.474;11.106;2023-04-03T10:23:02;3.78;;;1.60;;
46355;SDS011;32066;49.474;11.106;2023-04-03T10:25:48;5.17;;;1.67;;
46355;SDS011;32066;49.474;11.106;2023-04-03T10:28:30;6.18;;;1.92;;
46355;SDS011;32066;49.474;11.106;2023-04-03T10:31:04;4.35;;;1.65;;
46355;SDS011;32066;49.474;11.106;2023-04-03T10:33:50;7.22;;;2.20;;
46355;SDS011;32066;49.474;11.106;2023-04-03T10:36:27;4.53;;;1.88;;
46355;SDS011;32066;49.474;11.106;2023-04-03T10:39:06;5.82;;;1.83;;
46355;SDS011;32066;49.474;11.106;2023-04-03T10:41:45;4.85;;;1.63;;
46355;SDS011;32066;49.474;11.106;2023-04-03T10:44:29;6.30;;;2.00;;
46355;SDS011;32066;49.474;11.106;2023-04-03T10:47:06;4.90;;;1.85;;
46355;SDS011;32066;49.474;11.106;2023-04-03T10:49:44;4.40;;;1.58;;
46355;SDS011;32066;49.474;11.106;2023-04-03T10:52:24;4.80;;;1.63;;
46355;SDS011;32066;49.474;11.106;2023-04-03T10:55:01;3.95;;;1.60;;
46355;SDS011;32066;49.474;11.106;2023-04-03T11:00:06;5.22;;;1.92;;
46355;SDS011;32066;49.474;11.106;2023-04-03T11:02:45;5.97;;;1.60;;
46355;SDS011;32066;49.474;11.106;2023-04-03T11:05:34;5.18;;;1.70;;
46355;SDS011;32066;49.474;11.106;2023-04-03T11:08:09;5.05;;;2.00;;
46355;SDS011;32066;49.474;11.106;2023-04-03T11:13:11;4.78;;;1.55;;
46355;SDS011;32066;49.474;11.106;2023-04-03T11:15:45;5.93;;;1.80;;
46355;SDS011;32066;49.474;11.106;2023-04-03T11:18:14;4.70;;;1.80;;
46355;SDS011;32066;49.474;11.106;2023-04-03T11:20:49;5.47;;;1.83;;
46355;SDS011;32066;49.474;11.106;2023-04-03T11:23:24;3.88;;;1.70;;
46355;SDS011;32066;49.474;11.106;2023-04-03T11:25:54;5.07;;;1.85;;
46355;SDS011;32066;49.474;11.106;2023-04-03T11:28:27;3.65;;;1.55;;
46355;SDS011;32066;49.474;11.106;2023-04-03T11:31:01;4.97;;;1.85;;
46355;SDS011;32066;49.474;11.106;2023-04-03T11:33:42;5.75;;;1.70;;
46355;SDS011;32066;49.474;11.106;2023-04-03T11:36:18;4.28;;;1.55;;
46355;SDS011;32066;49.474;11.106;2023-04-03T11:38:51;5.80;;;1.80;;
46355;SDS011;32066;49.474;11.106;2023-04-03T11:41:25;3.92;;;1.50;;
46355;SDS011;32066;49.474;11.106;2023-04-03T11:43:57;3.67;;;1.45;;
46355;SDS011;32066;49.474;11.106;2023-04-03T11:58:14;4.63;;;1.60;;
46355;SDS011;32066;49.474;11.106;2023-04-03T12:12:42;5.05;;;1.80;;
46355;SDS011;32066;49.474;11.106;2023-04-03T12:15:24;4.35;;;1.60;;
46355;SDS011;32066;49.474;11.106;2023-04-03T12:21:22;4.32;;;1.60;;
46355;SDS011;32066;49.474;11.106;2023-04-03T12:24:00;5.13;;;1.40;;
46355;SDS011;32066;49.474;11.106;2023-04-03T12:26:33;4.93;;;1.73;;
46355;SDS011;32066;49.474;11.106;2023-04-03T12:29:10;6.13;;;1.70;;
46355;SDS011;32066;49.474;11.106;2023-04-03T12:31:46;6.15;;;1.60;;
46355;SDS011;32066;49.474;11.106;2023-04-03T12:34:32;4.50;;;1.50;;
46355;SDS011;32066;49.474;11.106;2023-04-03T12:37:20;4.85;;;1.58;;
46355;SDS011;32066;49.474;11.106;2023-04-03T12:40:05;5.32;;;1.70;;
46355;SDS011;32066;49.474;11.106;2023-04-03T12:42:51;5.25;;;1.52;;
46355;SDS011;32066;49.474;11.106;2023-04-03T12:45:29;3.20;;;1.40;;
46355;SDS011;32066;49.474;11.106;2023-04-03T12:48:14;4.13;;;1.45;;
46355;SDS011;32066;49.474;11.106;2023-04-03T12:50:45;4.32;;;1.60;;
46355;SDS011;32066;49.474;11.106;2023-04-03T12:53:18;5.60;;;1.55;;
46355;SDS011;32066;49.474;11.106;2023-04-03T12:55:53;4.20;;;1.55;;
46355;SDS011;32066;49.474;11.106;2023-04-03T12:58:23;4.78;;;1.90;;
46355;SDS011;32066;49.474;11.106;2023-04-03T13:01:00;3.70;;;1.45;;
46355;SDS011;32066;49.474;11.106;2023-04-03T13:03:30;5.13;;;1.63;;
46355;SDS011;32066;49.474;11.106;2023-04-03T13:06:00;4.20;;;1.52;;
46355;SDS011;32066;49.474;11.106;2023-04-03T13:08:32;3.90;;;1.33;;
46355;SDS011;32066;49.474;11.106;2023-04-03T13:11:01;4.40;;;1.60;;
46355;SDS011;32066;49.474;11.106;2023-04-03T13:13:33;4.85;;;1.48;;
46355;SDS011;32066;49.474;11.106;2023-04-03T13:16:07;4.55;;;1.52;;
46355;SDS011;32066;49.474;11.106;2023-04-03T13:18:39;3.95;;;1.42;;
46355;SDS011;32066;49.474;11.106;2023-04-03T13:21:10;3.75;;;1.45;;
46355;SDS011;32066;49.474;11.106;2023-04-03T13:23:46;4.55;;;1.40;;
46355;SDS011;32066;49.474;11.106;2023-04-03T13:26:17;4.25;;;1.50;;
46355;SDS011;32066;49.474;11.106;2023-04-03T13:28:47;3.83;;;1.60;;
46355;SDS011;32066;49.474;11.106;2023-04-03T13:31:18;3.50;;;1.33;;
46355;SDS011;32066;49.474;11.106;2023-04-03T13:33:54;3.58;;;1.30;;
46355;SDS011;32066;49.474;11.106;2023-04-03T13:36:26;5.00;;;1.42;;
46355;SDS011;32066;49.474;11.106;2023-04-03T13:39:02;4.80;;;1.50;;
46355;SDS011;32066;49.474;11.106;2023-04-03T13:41:34;5.03;;;1.75;;
46355;SDS011;32066;49.474;11.106;2023-04-03T13:47:13;3.63;;;1.50;;
46355;SDS011;32066;49.474;11.106;2023-04-03T13:49:45;4.60;;;1.80;;
46355;SDS011;32066;49.474;11.106;2023-04-03T13:52:27;4.15;;;1.38;;
46355;SDS011;32066;49.474;11.106;2023-04-03T13:55:01;5.50;;;1.58;;
46355;SDS011;32066;49.474;11.106;2023-04-03T13:57:48;3.30;;;1.40;;
46355;SDS011;32066;49.474;11.106;2023-04-03T14:00:22;4.63;;;1.50;;
46355;SDS011;32066;49.474;11.106;2023-04-03T14:02:57;4.15;;;1.55;;
46355;SDS011;32066;49.474;11.106;2023-04-03T14:05:26;3.65;;;1.45;;
46355;SDS011;32066;49.474;11.106;2023-04-03T14:07:54;3.97;;;1.60;;
46355;SDS011;32066;49.474;11.106;2023-04-03T14:10:26;4.70;;;1.50;;
46355;SDS011;32066;49.474;11.106;2023-04-03T14:12:55;3.42;;;1.45;;
46355;SDS011;32066;49.474;11.106;2023-04-03T14:15:24;5.10;;;1.50;;
46355;SDS011;32066;49.474;11.106;2023-04-03T14:17:56;4.05;;;1.73;;
46355;SDS011;32066;49.474;11.106;2023-04-03T14:20:26;4.60;;;1.40;;
46355;SDS011;32066;49.474;11.106;2023-04-03T14:22:55;4.80;;;1.63;;
46355;SDS011;32066;49.474;11.106;2023-04-03T14:25:26;4.38;;;1.52;;
46355;SDS011;32066;49.474;11.106;2023-04-03T14:27:55;5.28;;;1.60;;
46355;SDS011;32066;49.474;11.106;2023-04-03T14:30:26;4.43;;;1.60;;
46355;SDS011;32066;49.474;11.106;2023-04-03T14:32:57;4.15;;;1.65;;
46355;SDS011;32066;49.474;11.106;2023-04-03T14:35:26;4.28;;;1.50;;
46355;SDS011;32066;49.474;11.106;2023-04-03T14:37:55;5.05;;;1.70;;
46355;SDS011;32066;49.474;11.106;2023-04-03T14:40:27;4.13;;;1.60;;
46355;SDS011;32066;49.474;11.106;2023-04-03T14:42:55;4.38;;;1.50;;
46355;SDS011;32066;49.474;11.106;2023-04-03T14:45:24;4.78;;;1.80;;
46355;SDS011;32066;49.474;11.106;2023-04-03T14:47:54;5.10;;;1.90;;
46355;SDS011;32066;49.474;11.106;2023-04-03T14:50:24;4.95;;;1.88;;
46355;SDS011;32066;49.474;11.106;2023-04-03T14:52:54;4.07;;;1.55;;
46355;SDS011;32066;49.474;11.106;2023-04-03T14:55:28;4.10;;;1.67;;
46355;SDS011;32066;49.474;11.106;2023-04-03T14:57:57;4.63;;;1.65;;
46355;SDS011;32066;49.474;11.106;2023-04-03T15:00:26;4.40;;;1.70;;
46355;SDS011;32066;49.474;11.106;2023-04-03T15:02:54;5.68;;;2.10;;
46355;SDS011;32066;49.474;11.106;2023-04-03T15:05:23;6.05;;;1.75;;
46355;SDS011;32066;49.474;11.106;2023-04-03T15:07:52;4.93;;;1.70;;
46355;SDS011;32066;49.474;11.106;2023-04-03T15:10:23;6.15;;;1.70;;
46355;SDS011;32066;49.474;11.106;2023-04-03T15:12:56;4.93;;;1.80;;
46355;SDS011;32066;49.474;11.106;2023-04-03T15:15:27;4.57;;;1.67;;
46355;SDS011;32066;49.474;11.106;2023-04-03T15:17:57;4.18;;;1.55;;
46355;SDS011;32066;49.474;11.106;2023-04-03T15:20:27;4.07;;;1.50;;
46355;SDS011;32066;49.474;11.106;2023-04-03T15:22:59;4.97;;;1.52;;
46355;SDS011;32066;49.474;11.106;2023-04-03T15:25:29;4.28;;;1.70;;
46355;SDS011;32066;49.474;11.106;2023-04-03T15:28:01;4.35;;;1.60;;
46355;SDS011;32066;49.474;11.106;2023-04-03T15:30:30;4.07;;;1.60;;
46355;SDS011;32066;49.474;11.106;2023-04-03T15:32:59;4.70;;;1.70;;
46355;SDS011;32066;49.474;11.106;2023-04-03T15:35:28;4.47;;;1.60;;
46355;SDS011;32066;49.474;11.106;2023-04-03T15:37:56;3.75;;;1.58;;
46355;SDS011;32066;49.474;11.106;2023-04-03T15:40:25;4.70;;;1.88;;